createdAt,value
2018-11-01T00:01:36.128Z,95351.05
2018-11-01T00:04:05.624Z,95351.87
2018-11-01T00:06:34.760Z,95344.83
2018-11-01T00:09:04.661Z,95351.87
2018-11-01T00:11:33.843Z,95356.75
2018-11-01T00:14:03.436Z,95362.16
2018-11-01T00:16:32.532Z,95352.93
2018-11-01T00:19:01.644Z,95353.78
2018-11-01T00:21:30.819Z,95349.68
2018-11-01T00:23:59.912Z,95342.31
2018-11-01T00:26:29.112Z,95334.70
2018-11-01T00:28:58.237Z,95338.77
2018-11-01T00:31:27.392Z,95351.81
2018-11-01T00:33:56.835Z,95354.77
2018-11-01T00:36:25.997Z,95353.70
2018-11-01T00:38:55.092Z,95356.67
2018-11-01T00:41:24.397Z,95356.69
2018-11-01T00:43:53.504Z,95362.39
2018-11-01T00:46:22.605Z,95358.05
2018-11-01T00:48:51.798Z,95354.53
2018-11-01T00:51:20.977Z,95353.17
2018-11-01T00:53:50.042Z,95349.64
2018-11-01T00:56:19.157Z,95348.02
2018-11-01T00:58:48.309Z,95353.47
2018-11-01T01:01:17.493Z,95349.41
2018-11-01T01:03:46.750Z,95340.95
2018-11-01T01:06:15.871Z,95333.92
2018-11-01T01:08:45.037Z,95330.38
2018-11-01T01:11:14.143Z,95322.52
2018-11-01T01:13:44.128Z,95317.36
2018-11-01T01:16:13.411Z,95323.05
2018-11-01T01:18:42.699Z,95323.36
2018-11-01T01:21:11.857Z,95313.59
2018-11-01T01:23:40.933Z,95306.83
2018-11-01T01:26:10.040Z,95298.40
2018-11-01T01:28:39.131Z,95287.50
2018-11-01T01:31:08.289Z,95288.57
2018-11-01T01:33:37.421Z,95285.84
2018-11-01T01:36:06.485Z,95281.56
2018-11-01T01:38:35.552Z,95298.14
2018-11-01T01:41:04.737Z,95306.30
2018-11-01T01:43:33.832Z,95304.95
2018-11-01T01:46:02.996Z,95302.25
2018-11-01T01:48:32.118Z,95299.78
2018-11-01T01:51:01.230Z,95307.92
2018-11-01T01:53:30.426Z,95310.08
2018-11-01T01:55:59.616Z,95311.98
2018-11-01T01:58:28.767Z,95320.94
2018-11-01T02:00:57.978Z,95315.23
2018-11-01T02:03:27.082Z,95320.11
2018-11-01T02:05:56.376Z,95324.16
2018-11-01T02:08:25.515Z,95312.52
2018-11-01T02:10:54.704Z,95300.86
2018-11-01T02:13:24.911Z,95293.80
2018-11-01T02:15:54.018Z,95289.72
2018-11-01T02:18:23.170Z,95290.81
2018-11-01T02:20:52.381Z,95287.83
2018-11-01T02:23:21.569Z,95285.08
2018-11-01T02:25:50.844Z,95284.30
2018-11-01T02:28:20.005Z,95294.59
2018-11-01T02:30:49.121Z,95288.38
2018-11-01T02:33:18.288Z,95293.25
2018-11-01T02:35:47.373Z,95301.39
2018-11-01T02:38:16.725Z,95290.79
2018-11-01T02:40:45.765Z,95279.94
2018-11-01T02:43:14.901Z,95285.34
2018-11-01T02:45:44.034Z,95291.86
2018-11-01T02:48:13.294Z,95291.65
2018-11-01T02:50:42.467Z,95284.03
2018-11-01T02:53:11.693Z,95278.30
2018-11-01T02:55:40.811Z,95266.11
2018-11-01T02:58:09.910Z,95257.16
2018-11-01T03:00:39.034Z,95254.72
2018-11-01T03:03:08.153Z,95249.56
2018-11-01T03:05:37.316Z,95248.45
2018-11-01T03:08:06.428Z,95262.85
2018-11-01T03:10:35.538Z,95256.59
2018-11-01T03:13:04.905Z,95244.94
2018-11-01T03:15:34.012Z,95251.98
2018-11-01T03:18:03.105Z,95263.94
2018-11-01T03:20:32.220Z,95253.92
2018-11-01T03:23:01.314Z,95253.12
2018-11-01T03:25:30.424Z,95262.91
2018-11-01T03:27:59.547Z,95258.00
2018-11-01T03:30:28.707Z,95250.13
2018-11-01T03:32:57.899Z,95237.67
2018-11-01T03:35:27.081Z,95240.92
2018-11-01T03:37:56.193Z,95232.01
2018-11-01T03:40:25.423Z,95235.55
2018-11-01T03:42:54.601Z,95223.05
2018-11-01T03:45:23.828Z,95223.33
2018-11-01T03:47:53.249Z,95224.41
2018-11-01T03:50:22.377Z,95211.39
2018-11-01T03:52:51.479Z,95220.62
2018-11-01T03:55:20.577Z,95226.58
2018-11-01T03:57:49.678Z,95230.65
2018-11-01T04:00:18.860Z,95239.05
2018-11-01T04:02:48.137Z,95240.13
2018-11-01T04:05:17.222Z,95245.84
2018-11-01T04:07:46.425Z,95244.75
2018-11-01T04:10:15.579Z,95243.14
2018-11-01T04:12:44.756Z,95225.78
2018-11-01T04:15:14.793Z,95216.01
2018-11-01T04:17:43.920Z,95224.95
2018-11-01T04:20:13.826Z,95229.60
2018-11-01T04:22:43.284Z,95222.82
2018-11-01T04:25:12.765Z,95213.59
2018-11-01T04:27:42.051Z,95203.81
2018-11-01T04:30:11.160Z,95201.93
2018-11-01T04:32:40.329Z,95214.10
2018-11-01T04:35:10.097Z,95206.22
2018-11-01T04:37:39.458Z,95203.79
2018-11-01T04:40:09.481Z,95190.23
2018-11-01T04:42:38.774Z,95180.76
2018-11-01T04:45:09.221Z,95175.31
2018-11-01T04:47:38.452Z,95165.56
2018-11-01T04:50:08.796Z,95168.31
2018-11-01T04:52:37.897Z,95165.87
2018-11-01T04:55:07.519Z,95164.56
2018-11-01T04:57:36.617Z,95175.92
2018-11-01T05:00:08.409Z,95173.73
2018-11-01T05:02:37.509Z,95177.01
2018-11-01T05:05:06.634Z,95157.23
2018-11-01T05:07:36.107Z,95135.27
2018-11-01T05:10:06.777Z,95134.19
2018-11-01T05:12:36.064Z,95138.00
2018-11-01T05:15:05.493Z,95117.44
2018-11-01T05:17:34.664Z,95098.71
2018-11-01T05:20:03.884Z,95106.86
2018-11-01T05:22:33.127Z,95114.75
2018-11-01T05:25:02.225Z,95108.52
2018-11-01T05:27:31.745Z,95107.42
2018-11-01T05:30:00.973Z,95099.58
2018-11-01T05:32:30.073Z,95093.12
2018-11-01T05:34:59.233Z,95096.36
2018-11-01T05:37:28.368Z,95109.41
2018-11-01T05:39:57.524Z,95106.41
2018-11-01T05:42:27.309Z,95093.14
2018-11-01T05:44:56.439Z,95089.89
2018-11-01T05:47:25.552Z,95093.95
2018-11-01T05:49:54.667Z,95087.72
2018-11-01T05:52:23.828Z,95080.13
2018-11-01T05:54:52.972Z,95078.76
2018-11-01T05:57:22.102Z,95084.45
2018-11-01T05:59:51.338Z,95084.44
2018-11-01T06:02:26.817Z,95080.38
2018-11-01T06:04:56.579Z,95072.49
2018-11-01T06:07:33.791Z,95081.41
2018-11-01T06:10:02.978Z,95090.02
2018-11-01T06:12:32.271Z,95077.77
2018-11-01T06:15:01.394Z,95075.88
2018-11-01T06:17:30.546Z,95084.79
2018-11-01T06:19:59.704Z,95081.81
2018-11-01T06:22:28.776Z,95076.13
2018-11-01T06:24:57.962Z,95073.67
2018-11-01T06:27:27.179Z,95077.98
2018-11-01T06:29:56.371Z,95072.85
2018-11-01T06:32:25.472Z,95063.61
2018-11-01T06:34:58.805Z,95071.44
2018-11-01T06:37:27.959Z,95064.14
2018-11-01T06:39:57.070Z,95057.05
2018-11-01T06:42:26.396Z,95052.69
2018-11-01T06:44:55.582Z,95058.05
2018-11-01T06:47:25.582Z,95053.66
2018-11-01T06:49:54.706Z,95044.69
2018-11-01T06:52:23.815Z,95047.37
2018-11-01T06:54:52.916Z,95047.10
2018-11-01T06:57:22.132Z,95041.73
2018-11-01T06:59:51.248Z,95039.53
2018-11-01T07:02:20.419Z,95071.27
2018-11-01T07:04:49.505Z,95067.42
2018-11-01T07:07:18.667Z,95077.42
2018-11-01T07:09:47.859Z,95073.05
2018-11-01T07:12:17.015Z,95087.14
2018-11-01T07:14:46.123Z,95092.27
2018-11-01T07:17:15.304Z,95078.92
2018-11-01T07:19:44.306Z,95079.16
2018-11-01T07:22:13.385Z,95076.97
2018-11-01T07:24:42.471Z,95087.23
2018-11-01T07:27:11.653Z,95095.56
2018-11-01T07:29:40.751Z,95088.77
2018-11-01T07:32:10.635Z,95098.22
2018-11-01T07:34:39.759Z,95099.03
2018-11-01T07:37:08.903Z,95090.22
2018-11-01T07:39:38.053Z,95094.19
2018-11-01T07:42:07.109Z,95077.81
2018-11-01T07:44:36.249Z,95094.64
2018-11-01T07:47:06.079Z,95087.78
2018-11-01T07:49:35.169Z,95075.00
2018-11-01T07:52:04.519Z,95073.55
2018-11-01T07:54:33.651Z,95084.87
2018-11-01T07:57:02.861Z,95095.17
2018-11-01T07:59:32.081Z,95089.41
2018-11-01T08:02:01.339Z,95081.34
2018-11-01T08:04:30.532Z,95094.59
2018-11-01T08:06:59.675Z,95083.91
2018-11-01T08:09:28.838Z,95062.73
2018-11-01T08:11:58.570Z,95062.08
2018-11-01T08:14:27.768Z,95073.34
2018-11-01T08:16:56.901Z,95077.71
2018-11-01T08:19:26.031Z,95050.52
2018-11-01T08:21:55.078Z,95059.51
2018-11-01T08:24:24.248Z,95087.80
2018-11-01T08:26:53.317Z,95081.75
2018-11-01T08:29:22.458Z,95065.78
2018-11-01T08:31:51.622Z,95057.28
2018-11-01T08:34:20.720Z,95060.98
2018-11-01T08:36:49.824Z,95072.77
2018-11-01T08:39:19.870Z,95060.88
2018-11-01T08:41:49.042Z,95052.83
2018-11-01T08:44:18.206Z,95041.59
2018-11-01T08:46:47.328Z,95043.06
2018-11-01T08:49:16.695Z,95039.81
2018-11-01T08:51:45.750Z,95035.23
2018-11-01T08:54:14.840Z,95043.30
2018-11-01T08:56:44.038Z,95038.33
2018-11-01T08:59:13.233Z,95062.78
2018-11-01T09:01:42.334Z,95061.92
2018-11-01T09:04:11.587Z,95058.92
2018-11-01T09:06:40.663Z,95055.93
2018-11-01T09:09:09.794Z,95046.23
2018-11-01T09:11:39.244Z,95052.16
2018-11-01T09:14:08.436Z,95048.08
2018-11-01T09:16:37.517Z,95043.99
2018-11-01T09:19:07.021Z,95052.17
2018-11-01T09:21:36.103Z,95075.26
2018-11-01T09:24:06.204Z,95069.50
2018-11-01T09:26:35.466Z,95069.48
2018-11-01T09:29:04.557Z,95060.06
2018-11-01T09:31:33.646Z,95050.53
2018-11-01T09:34:02.742Z,95058.11
2018-11-01T09:36:31.859Z,95057.46
2018-11-01T09:39:00.963Z,95055.65
2018-11-01T09:41:30.078Z,95066.98
2018-11-01T09:43:59.191Z,95097.63
2018-11-01T09:46:28.434Z,95102.77
2018-11-01T09:48:57.364Z,95100.58
2018-11-01T09:51:26.547Z,95095.04
2018-11-01T09:53:55.752Z,95113.28
2018-11-01T09:56:25.064Z,95099.02
2018-11-01T09:58:54.095Z,95096.41
2018-11-01T10:01:23.232Z,95129.94
2018-11-01T10:03:52.584Z,95135.56
2018-11-01T10:06:21.739Z,95141.88
2018-11-01T10:08:50.902Z,95145.69
2018-11-01T10:11:20.174Z,95151.80
2018-11-01T10:13:49.272Z,95165.87
2018-11-01T10:16:18.445Z,95162.27
2018-11-01T10:18:47.436Z,95171.21
2018-11-01T10:21:16.570Z,95154.80
2018-11-01T10:23:45.719Z,95152.75
2018-11-01T10:26:14.934Z,95141.84
2018-11-01T10:28:44.098Z,95131.75
2018-11-01T10:31:13.184Z,95115.16
2018-11-01T10:33:42.381Z,95102.56
2018-11-01T10:36:11.437Z,95095.41
2018-11-01T10:38:40.522Z,95100.18
2018-11-01T10:41:09.612Z,95099.76
2018-11-01T10:43:38.696Z,95104.50
2018-11-01T10:46:07.897Z,95089.76
2018-11-01T10:48:37.055Z,95082.12
2018-11-01T10:51:06.521Z,95080.56
2018-11-01T10:53:35.664Z,95080.22
2018-11-01T10:56:05.073Z,95079.80
2018-11-01T10:58:34.181Z,95076.31
2018-11-01T11:01:08.779Z,95072.66
2018-11-01T11:03:37.904Z,95058.67
2018-11-01T11:06:07.490Z,95048.20
2018-11-01T11:08:36.599Z,95056.04
2018-11-01T11:11:06.944Z,95051.45
2018-11-01T11:13:36.040Z,95050.50
2018-11-01T11:16:05.167Z,95033.09
2018-11-01T11:18:34.482Z,95030.78
2018-11-01T11:21:03.816Z,95029.38
2018-11-01T11:23:32.729Z,95028.20
2018-11-01T11:26:02.061Z,95028.68
2018-11-01T11:28:31.305Z,95030.11
2018-11-01T11:31:00.506Z,95030.84
2018-11-01T11:33:29.692Z,95027.92
2018-11-01T11:35:58.919Z,95034.97
2018-11-01T11:38:27.985Z,95022.27
2018-11-01T11:40:57.095Z,95021.56
2018-11-01T11:43:26.197Z,95030.90
2018-11-01T11:45:55.275Z,95025.55
2018-11-01T11:48:24.997Z,95025.83
2018-11-01T11:50:54.087Z,95027.62
2018-11-01T11:53:23.851Z,95036.55
2018-11-01T11:55:53.036Z,95036.67
2018-11-01T11:58:22.229Z,95038.39
2018-11-01T12:00:51.300Z,95052.56
2018-11-01T12:03:20.783Z,95055.42
2018-11-01T12:05:49.931Z,95064.02
2018-11-01T12:08:25.429Z,95054.81
2018-11-01T12:11:01.302Z,95059.94
2018-11-01T12:13:30.523Z,95062.31
2018-11-01T12:15:59.620Z,95073.88
2018-11-01T12:18:28.696Z,95058.56
2018-11-01T12:20:57.821Z,95069.19
2018-11-01T12:23:26.937Z,95071.69
2018-11-01T12:25:56.060Z,95070.48
2018-11-01T12:28:25.270Z,95064.49
2018-11-01T12:30:54.307Z,95068.95
2018-11-01T12:33:23.452Z,95076.84
2018-11-01T12:35:52.679Z,95070.66
2018-11-01T12:38:21.850Z,95076.98
2018-11-01T12:40:51.051Z,95085.61
2018-11-01T12:43:20.260Z,95090.35
2018-11-01T12:45:49.347Z,95100.71
2018-11-01T12:48:18.432Z,95102.55
2018-11-01T12:50:47.545Z,95116.55
2018-11-01T12:53:16.645Z,95106.05
2018-11-01T12:55:45.807Z,95115.30
2018-11-01T12:58:14.913Z,95126.32
2018-11-01T13:00:44.033Z,95121.14
2018-11-01T13:03:13.209Z,95104.69
2018-11-01T13:05:42.317Z,95101.36
2018-11-01T13:08:11.423Z,95112.31
2018-11-01T13:10:40.548Z,95100.00
2018-11-01T13:13:09.657Z,95091.86
2018-11-01T13:15:38.789Z,95095.51
2018-11-01T13:18:07.999Z,95099.95
2018-11-01T13:20:37.063Z,95105.47
2018-11-01T13:23:06.148Z,95100.77
2018-11-01T13:25:35.232Z,95121.77
2018-11-01T13:28:04.346Z,95118.76
2018-11-01T13:30:33.478Z,95122.03
2018-11-01T13:33:02.593Z,95124.27
2018-11-01T13:35:31.884Z,95117.61
2018-11-01T13:38:00.853Z,95115.95
2018-11-01T13:40:30.351Z,95115.19
2018-11-01T13:42:59.187Z,95120.72
2018-11-01T13:45:28.426Z,95123.41
2018-11-01T13:47:57.568Z,95117.92
2018-11-01T13:50:26.625Z,95127.66
2018-11-01T13:52:55.730Z,95137.08
2018-11-01T13:55:24.933Z,95140.75
2018-11-01T13:57:54.132Z,95150.29
2018-11-01T14:00:23.329Z,95163.73
2018-11-01T14:02:52.430Z,95168.22
2018-11-01T14:05:21.595Z,95175.05
2018-11-01T14:07:50.693Z,95182.50
2018-11-01T14:10:19.793Z,95187.27
2018-11-01T14:12:48.907Z,95196.83
2018-11-01T14:15:18.645Z,95204.19
2018-11-01T14:17:47.482Z,95208.09
2018-11-01T14:20:16.555Z,95213.20
2018-11-01T14:22:45.655Z,95218.70
2018-11-01T14:25:14.761Z,95227.75
2018-11-01T14:27:44.111Z,95231.67
2018-11-01T14:30:15.580Z,95230.12
2018-11-01T14:32:44.919Z,95226.08
2018-11-01T14:35:14.078Z,95227.64
2018-11-01T14:37:43.282Z,95229.84
2018-11-01T14:40:13.631Z,95221.62
2018-11-01T14:42:42.937Z,95220.95
2018-11-01T14:45:12.043Z,95223.01
2018-11-01T14:47:41.306Z,95217.49
2018-11-01T14:50:11.227Z,95226.14
2018-11-01T14:52:40.691Z,95226.17
2018-11-01T14:55:11.084Z,95233.39
2018-11-01T14:57:40.658Z,95235.42
2018-11-01T15:00:09.530Z,95237.23
2018-11-01T15:02:38.761Z,95244.59
2018-11-01T15:05:08.140Z,95239.55
2018-11-01T15:07:37.227Z,95238.32
2018-11-01T15:10:08.500Z,95238.21
2018-11-01T15:12:37.718Z,95244.28
2018-11-01T15:15:08.103Z,95242.02
2018-11-01T15:17:37.335Z,95245.13
2018-11-01T15:20:06.480Z,95247.44
2018-11-01T15:22:35.665Z,95247.69
2018-11-01T15:25:05.453Z,95253.73
2018-11-01T15:27:34.567Z,95256.86
2018-11-01T15:30:03.738Z,95256.72
2018-11-01T15:32:32.868Z,95262.80
2018-11-01T15:35:01.933Z,95265.21
2018-11-01T15:37:31.052Z,95255.91
2018-11-01T15:40:00.278Z,95259.96
2018-11-01T15:42:30.072Z,95260.73
2018-11-01T15:44:59.257Z,95256.05
2018-11-01T15:47:28.357Z,95255.14
2018-11-01T15:49:57.561Z,95268.69
2018-11-01T15:52:26.716Z,95271.35
2018-11-01T15:54:55.816Z,95268.27
2018-11-01T15:57:24.945Z,95270.09
2018-11-01T15:59:54.067Z,95274.36
2018-11-01T16:02:23.293Z,95278.23
2018-11-01T16:04:52.364Z,95280.23
2018-11-01T16:07:21.516Z,95283.78
2018-11-01T16:09:50.836Z,95287.27
2018-11-01T16:12:19.992Z,95297.78
2018-11-01T16:14:49.112Z,95293.70
2018-11-01T16:17:18.226Z,95296.24
2018-11-01T16:19:48.377Z,95294.89
2018-11-01T16:22:17.415Z,95304.78
2018-11-01T16:24:46.608Z,95308.58
2018-11-01T16:27:15.806Z,95311.83
2018-11-01T16:29:44.913Z,95318.55
2018-11-01T16:32:14.202Z,95329.91
2018-11-01T16:34:43.306Z,95330.31
2018-11-01T16:37:12.526Z,95332.45
2018-11-01T16:39:41.991Z,95322.92
2018-11-01T16:42:11.261Z,95318.69
2018-11-01T16:44:40.401Z,95321.64
2018-11-01T16:47:09.563Z,95315.11
2018-11-01T16:49:38.856Z,95318.75
2018-11-01T16:52:08.061Z,95329.55
2018-11-01T16:54:37.346Z,95334.49
2018-11-01T16:57:06.529Z,95338.22
2018-11-01T16:59:35.870Z,95340.68
2018-11-01T17:02:05.331Z,95341.50
2018-11-01T17:04:34.512Z,95347.49
2018-11-01T17:07:03.644Z,95358.35
2018-11-01T17:09:32.773Z,95363.57
2018-11-01T17:12:02.012Z,95364.06
2018-11-01T17:14:31.098Z,95361.55
2018-11-01T17:17:00.289Z,95358.66
2018-11-01T17:19:29.560Z,95363.72
2018-11-01T17:21:58.832Z,95372.42
2018-11-01T17:24:27.938Z,95376.91
2018-11-01T17:26:57.187Z,95375.17
2018-11-01T17:29:26.363Z,95377.97
2018-11-01T17:31:55.454Z,95378.84
2018-11-01T17:34:24.566Z,95390.03
2018-11-01T17:36:53.675Z,95390.85
2018-11-01T17:39:22.861Z,95393.23
2018-11-01T17:41:51.962Z,95396.11
2018-11-01T17:44:21.046Z,95412.25
2018-11-01T17:46:50.148Z,95430.26
2018-11-01T17:49:19.257Z,95434.16
2018-11-01T17:51:49.324Z,95435.53
2018-11-01T17:54:18.436Z,95438.73
2018-11-01T17:56:47.921Z,95447.62
2018-11-01T17:59:17.040Z,95438.41
2018-11-01T18:01:46.193Z,95444.28
2018-11-01T18:04:15.365Z,95441.40
2018-11-01T18:06:44.448Z,95446.50
2018-11-01T18:09:14.829Z,95447.59
2018-11-01T18:11:44.589Z,95449.38
2018-11-01T18:14:13.810Z,95458.23
2018-11-01T18:16:42.869Z,95471.07
2018-11-01T18:19:11.972Z,95478.44
2018-11-01T18:21:41.160Z,95481.52
2018-11-01T18:24:10.244Z,95484.25
2018-11-01T18:26:39.370Z,95489.75
2018-11-01T18:29:08.440Z,95487.92
2018-11-01T18:31:37.544Z,95484.41
2018-11-01T18:34:06.790Z,95484.95
2018-11-01T18:36:35.885Z,95493.86
2018-11-01T18:39:06.916Z,95504.52
2018-11-01T18:41:35.920Z,95509.95
2018-11-01T18:44:05.164Z,95514.58
2018-11-01T18:46:34.524Z,95509.46
2018-11-01T18:49:03.719Z,95508.88
2018-11-01T18:51:32.788Z,95512.70
2018-11-01T18:54:02.032Z,95504.80
2018-11-01T18:56:31.165Z,95509.75
2018-11-01T18:59:00.656Z,95507.56
2018-11-01T19:01:29.733Z,95512.44
2018-11-01T19:03:58.876Z,95524.16
2018-11-01T19:06:28.032Z,95524.13
2018-11-01T19:08:57.140Z,95523.33
2018-11-01T19:11:26.235Z,95525.77
2018-11-01T19:13:55.444Z,95531.75
2018-11-01T19:16:24.741Z,95541.52
2018-11-01T19:18:53.964Z,95539.34
2018-11-01T19:21:23.117Z,95545.60
2018-11-01T19:23:52.280Z,95560.53
2018-11-01T19:26:21.720Z,95570.86
2018-11-01T19:28:53.831Z,95577.07
2018-11-01T19:31:22.994Z,95586.90
2018-11-01T19:33:52.243Z,95603.70
2018-11-01T19:36:21.296Z,95613.19
2018-11-01T19:38:50.365Z,95612.11
2018-11-01T19:41:19.676Z,95625.14
2018-11-01T19:43:48.847Z,95627.31
2018-11-01T19:46:18.241Z,95636.55
2018-11-01T19:48:47.303Z,95628.68
2018-11-01T19:51:16.473Z,95638.23
2018-11-01T19:53:45.539Z,95638.77
2018-11-01T19:56:14.665Z,95633.86
2018-11-01T19:58:43.762Z,95636.86
2018-11-01T20:01:12.989Z,95642.03
2018-11-01T20:03:42.231Z,95641.78
2018-11-01T20:06:11.305Z,95646.41
2018-11-01T20:08:40.563Z,95648.58
2018-11-01T20:11:09.701Z,95656.48
2018-11-01T20:13:38.827Z,95648.55
2018-11-01T20:16:07.918Z,95664.58
2018-11-01T20:18:37.139Z,95669.48
2018-11-01T20:21:06.164Z,95676.31
2018-11-01T20:23:35.320Z,95681.42
2018-11-01T20:26:04.943Z,95689.03
2018-11-01T20:28:34.044Z,95695.25
2018-11-01T20:31:03.370Z,95701.25
2018-11-01T20:33:32.446Z,95698.27
2018-11-01T20:36:01.461Z,95697.70
2018-11-01T20:38:30.724Z,95697.35
2018-11-01T20:40:59.824Z,95696.25
2018-11-01T20:43:28.928Z,95705.12
2018-11-01T20:45:58.134Z,95714.90
2018-11-01T20:48:27.332Z,95720.00
2018-11-01T20:50:56.481Z,95721.89
2018-11-01T20:53:25.580Z,95726.14
2018-11-01T20:55:54.660Z,95727.27
2018-11-01T20:58:23.731Z,95729.00
2018-11-01T21:00:52.906Z,95730.89
2018-11-01T21:03:22.070Z,95739.28
2018-11-01T21:05:51.123Z,95735.94
2018-11-01T21:08:20.694Z,95737.88
2018-11-01T21:10:50.196Z,95744.84
2018-11-01T21:13:19.272Z,95764.91
2018-11-01T21:15:48.357Z,95766.78
2018-11-01T21:18:19.932Z,95757.45
2018-11-01T21:20:52.816Z,95769.91
2018-11-01T21:23:23.988Z,95777.64
2018-11-01T21:25:53.106Z,95790.19
2018-11-01T21:28:22.176Z,95794.84
2018-11-01T21:30:51.265Z,95793.49
2018-11-01T21:33:20.437Z,95798.67
2018-11-01T21:35:49.684Z,95805.17
2018-11-01T21:38:19.090Z,95804.93
2018-11-01T21:40:48.156Z,95800.91
2018-11-01T21:43:17.309Z,95796.60
2018-11-01T21:45:46.410Z,95798.48
2018-11-01T21:48:15.516Z,95805.27
2018-11-01T21:50:44.577Z,95800.03
2018-11-01T21:53:13.687Z,95804.30
2018-11-01T21:55:42.810Z,95799.56
2018-11-01T21:58:12.005Z,95796.27
2018-11-01T22:00:41.111Z,95786.80
2018-11-01T22:03:10.216Z,95787.23
2018-11-01T22:05:39.377Z,95787.19
2018-11-01T22:08:08.609Z,95794.73
2018-11-01T22:10:37.925Z,95800.64
2018-11-01T22:13:07.035Z,95806.11
2018-11-01T22:15:36.123Z,95807.77
2018-11-01T22:18:05.477Z,95808.24
2018-11-01T22:20:34.668Z,95813.94
2018-11-01T22:23:03.801Z,95815.02
2018-11-01T22:25:32.902Z,95814.80
2018-11-01T22:28:02.084Z,95824.28
2018-11-01T22:30:31.149Z,95829.72
2018-11-01T22:33:00.339Z,95832.77
2018-11-01T22:35:29.606Z,95831.27
2018-11-01T22:37:58.723Z,95829.98
2018-11-01T22:40:27.803Z,95843.38
2018-11-01T22:42:56.872Z,95867.93
2018-11-01T22:45:26.016Z,95876.02
2018-11-01T22:47:55.103Z,95878.37
2018-11-01T22:50:24.518Z,95886.58
2018-11-01T22:52:53.765Z,95883.70
2018-11-01T22:55:22.940Z,95880.53
2018-11-01T22:57:52.004Z,95871.96
2018-11-01T23:00:21.436Z,95878.27
2018-11-01T23:02:50.509Z,95879.86
2018-11-01T23:05:19.627Z,95870.58
2018-11-01T23:07:48.728Z,95863.58
2018-11-01T23:10:17.854Z,95868.95
2018-11-01T23:12:47.138Z,95877.29
2018-11-01T23:15:16.324Z,95868.00
2018-11-01T23:17:45.570Z,95866.22
2018-11-01T23:20:14.651Z,95858.53
2018-11-01T23:22:43.904Z,95858.42
2018-11-01T23:25:13.281Z,95856.02
2018-11-01T23:27:42.384Z,95862.00
2018-11-01T23:30:11.508Z,95868.31
2018-11-01T23:32:40.774Z,95876.78
2018-11-01T23:35:09.914Z,95879.55
2018-11-01T23:37:44.455Z,95877.37
2018-11-01T23:40:18.961Z,95882.20
2018-11-01T23:42:53.408Z,95879.05
2018-11-01T23:45:27.956Z,95880.16
2018-11-01T23:48:00.233Z,95893.55
2018-11-01T23:50:35.261Z,95903.06
2018-11-01T23:54:11.641Z,95912.30
2018-11-01T23:56:40.748Z,95914.88
2018-11-01T23:59:09.941Z,95902.45
